<?xml version="1.0" encoding="UTF-8" standalone="no" ?>
<gpx version="1.1" creator="Visorando" xmlns:xsi="http://www.w3.org/2001/XMLSchema-instance" xmlns="http://www.topografix.com/GPX/1/1" xsi:schemaLocation="http://www.topografix.com/GPX/1/1 http://www.topografix.com/GPX/1/1/gpx.xsd">
 <metadata>
  <name>En vadrouille entre Coulanges-sur-Yonne et Lucy-sur-Yonne</name>
  <link href="https://www.visorando.com/randonnee-en-vadrouille-entre-coulanges-sur-yonne-/">
   <text>https://www.visorando.com/randonnee-en-vadrouille-entre-coulanges-sur-yonne-/</text>
  </link>
 </metadata>
 <wpt lat="47.522999" lon="3.540008">
  <ele>141</ele>
  <time>2018-01-29T14:13:14+01:00</time>
  <name>Parking devant le camping</name>
 </wpt>
 <wpt lat="47.520535" lon="3.539711">
  <ele>141</ele>
  <time>2018-01-29T14:16:34+01:00</time>
  <name>Pont sur le canal</name>
 </wpt>
 <wpt lat="47.524071" lon="3.555672">
  <ele>141</ele>
  <time>2018-01-29T14:32:03+01:00</time>
  <name>Route de la Ferme de Bèze</name>
 </wpt>
 <wpt lat="47.514775" lon="3.55225">
  <ele>182</ele>
  <time>2018-01-29T14:37:25+01:00</time>
  <name>suivre la route sur la gauche en direction du chat</name>
 </wpt>
 <wpt lat="47.51334" lon="3.557207">
  <ele>193</ele>
  <time>2020-05-22T17:33:34+02:00</time>
  <name>Départ de chemin</name>
 </wpt>
 <wpt lat="47.514471" lon="3.572892">
  <ele>188</ele>
  <time>2018-01-29T14:46:11+01:00</time>
  <name>La Rechignotte</name>
 </wpt>
 <wpt lat="47.524144" lon="3.582048">
  <ele>143</ele>
  <time>2018-01-29T14:52:43+01:00</time>
  <name>Église de Lucy-sur-Yonne</name>
 </wpt>
 <wpt lat="47.529093" lon="3.579946">
  <ele>135</ele>
  <time>2018-01-29T15:01:46+01:00</time>
  <name>Fourche après avoir franchi l'Yonne</name>
 </wpt>
 <wpt lat="47.531946" lon="3.576551">
  <ele>136</ele>
  <time>2018-01-29T15:08:19+01:00</time>
  <name>Route D39</name>
 </wpt>
 <wpt lat="47.532069" lon="3.576293">
  <ele>137</ele>
  <time>2018-01-29T15:08:35+01:00</time>
  <name>tourné sur la gauche</name>
 </wpt>
 <wpt lat="47.53191" lon="3.575263">
  <ele>140</ele>
  <time>2018-01-29T15:09:25+01:00</time>
  <name>prendre le chemin a droite</name>
 </wpt>
 <wpt lat="47.534134" lon="3.573343">
  <ele>145</ele>
  <time>2018-01-29T15:12:00+01:00</time>
  <name>Croisement de chemins</name>
 </wpt>
 <wpt lat="47.530229" lon="3.557925">
  <ele>145</ele>
  <time>2018-01-29T15:24:11+01:00</time>
  <name>Rue du Carré</name>
 </wpt>
 <wpt lat="47.526832" lon="3.55569">
  <ele>137</ele>
  <time>2018-01-29T15:30:39+01:00</time>
  <name>Rue du Port - Gîte</name>
 </wpt>
 <wpt lat="47.523282" lon="3.54003">
  <ele>141</ele>
  <time>2018-01-29T15:47:15+01:00</time>
  <name>Parking devant le camping</name>
 </wpt>
 <trk>
  <name>En vadrouille entre Coulanges-sur-Yonne et Lucy-sur-Yonne</name>
  <trkseg>
   <trkpt lat="47.522999" lon="3.540008">
    <ele>141</ele>
    <time>2018-01-29T14:13:14+01:00</time>
   </trkpt>
   <trkpt lat="47.522651" lon="3.539965">
    <ele>142</ele>
    <time>2018-01-29T14:13:26+01:00</time>
   </trkpt>
   <trkpt lat="47.522412" lon="3.539901">
    <ele>141</ele>
    <time>2018-01-29T14:13:44+01:00</time>
   </trkpt>
   <trkpt lat="47.522159" lon="3.539869">
    <ele>140</ele>
    <time>2018-01-29T14:14:01+01:00</time>
   </trkpt>
   <trkpt lat="47.521869" lon="3.539772">
    <ele>139</ele>
    <time>2018-01-29T14:14:20+01:00</time>
   </trkpt>
   <trkpt lat="47.52168" lon="3.539761">
    <ele>139</ele>
    <time>2020-05-22T17:26:14+02:00</time>
   </trkpt>
   <trkpt lat="47.521709" lon="3.539933">
    <ele>140</ele>
    <time>2018-01-29T14:14:36+01:00</time>
   </trkpt>
   <trkpt lat="47.521441" lon="3.539837">
    <ele>139</ele>
    <time>2018-01-29T14:14:54+01:00</time>
   </trkpt>
   <trkpt lat="47.521202" lon="3.539826">
    <ele>139</ele>
    <time>2018-01-29T14:15:12+01:00</time>
   </trkpt>
   <trkpt lat="47.520963" lon="3.539783">
    <ele>139</ele>
    <time>2018-01-29T14:15:59+01:00</time>
   </trkpt>
   <trkpt lat="47.520731" lon="3.539697">
    <ele>140</ele>
    <time>2018-01-29T14:16:18+01:00</time>
   </trkpt>
   <trkpt lat="47.520535" lon="3.539711">
    <ele>141</ele>
    <time>2018-01-29T14:16:34+01:00</time>
   </trkpt>
   <trkpt lat="47.52035" lon="3.53992">
    <ele>143</ele>
    <time>2018-01-29T14:16:55+01:00</time>
   </trkpt>
   <trkpt lat="47.520231" lon="3.540231">
    <ele>146</ele>
    <time>2018-01-29T14:17:07+01:00</time>
   </trkpt>
   <trkpt lat="47.520222" lon="3.540584">
    <ele>147</ele>
    <time>2018-01-29T14:17:22+01:00</time>
   </trkpt>
   <trkpt lat="47.520246" lon="3.540918">
    <ele>148</ele>
    <time>2018-01-29T14:17:38+01:00</time>
   </trkpt>
   <trkpt lat="47.520251" lon="3.541257">
    <ele>149</ele>
    <time>2018-01-29T14:17:56+01:00</time>
   </trkpt>
   <trkpt lat="47.520244" lon="3.541598">
    <ele>150</ele>
    <time>2018-01-29T14:18:10+01:00</time>
   </trkpt>
   <trkpt lat="47.520275" lon="3.541886">
    <ele>151</ele>
    <time>2018-01-29T14:18:26+01:00</time>
   </trkpt>
   <trkpt lat="47.520293" lon="3.542226">
    <ele>152</ele>
    <time>2018-01-29T14:19:17+01:00</time>
   </trkpt>
   <trkpt lat="47.520327" lon="3.542571">
    <ele>153</ele>
    <time>2018-01-29T14:19:34+01:00</time>
   </trkpt>
   <trkpt lat="47.520433" lon="3.542909">
    <ele>152</ele>
    <time>2018-01-29T14:19:52+01:00</time>
   </trkpt>
   <trkpt lat="47.520492" lon="3.543248">
    <ele>151</ele>
    <time>2018-01-29T14:20:08+01:00</time>
   </trkpt>
   <trkpt lat="47.520536" lon="3.543517">
    <ele>151</ele>
    <time>2018-01-29T14:20:29+01:00</time>
   </trkpt>
   <trkpt lat="47.520579" lon="3.543763">
    <ele>151</ele>
    <time>2018-01-29T14:21:19+01:00</time>
   </trkpt>
   <trkpt lat="47.520681" lon="3.544074">
    <ele>151</ele>
    <time>2018-01-29T14:21:36+01:00</time>
   </trkpt>
   <trkpt lat="47.52075" lon="3.544368">
    <ele>151</ele>
    <time>2018-01-29T14:21:51+01:00</time>
   </trkpt>
   <trkpt lat="47.520857" lon="3.544664">
    <ele>151</ele>
    <time>2018-01-29T14:22:06+01:00</time>
   </trkpt>
   <trkpt lat="47.520954" lon="3.544975">
    <ele>152</ele>
    <time>2018-01-29T14:22:21+01:00</time>
   </trkpt>
   <trkpt lat="47.521048" lon="3.545288">
    <ele>153</ele>
    <time>2018-01-29T14:22:37+01:00</time>
   </trkpt>
   <trkpt lat="47.521162" lon="3.545635">
    <ele>153</ele>
    <time>2018-01-29T14:22:54+01:00</time>
   </trkpt>
   <trkpt lat="47.521329" lon="3.545863">
    <ele>150</ele>
    <time>2018-01-29T14:23:06+01:00</time>
   </trkpt>
   <trkpt lat="47.521447" lon="3.546167">
    <ele>149</ele>
    <time>2018-01-29T14:23:22+01:00</time>
   </trkpt>
   <trkpt lat="47.521503" lon="3.546496">
    <ele>150</ele>
    <time>2018-01-29T14:23:38+01:00</time>
   </trkpt>
   <trkpt lat="47.521566" lon="3.546825">
    <ele>152</ele>
    <time>2018-01-29T14:23:54+01:00</time>
   </trkpt>
   <trkpt lat="47.521678" lon="3.547125">
    <ele>152</ele>
    <time>2018-01-29T14:24:11+01:00</time>
   </trkpt>
   <trkpt lat="47.521791" lon="3.547434">
    <ele>154</ele>
    <time>2018-01-29T14:24:27+01:00</time>
   </trkpt>
   <trkpt lat="47.521879" lon="3.547751">
    <ele>154</ele>
    <time>2018-01-29T14:24:43+01:00</time>
   </trkpt>
   <trkpt lat="47.521996" lon="3.548037">
    <ele>153</ele>
    <time>2018-01-29T14:24:59+01:00</time>
   </trkpt>
   <trkpt lat="47.522109" lon="3.548333">
    <ele>151</ele>
    <time>2018-01-29T14:25:14+01:00</time>
   </trkpt>
   <trkpt lat="47.52223" lon="3.548629">
    <ele>150</ele>
    <time>2018-01-29T14:25:29+01:00</time>
   </trkpt>
   <trkpt lat="47.522314" lon="3.548941">
    <ele>150</ele>
    <time>2018-01-29T14:25:44+01:00</time>
   </trkpt>
   <trkpt lat="47.522456" lon="3.549224">
    <ele>148</ele>
    <time>2018-01-29T14:25:58+01:00</time>
   </trkpt>
   <trkpt lat="47.522535" lon="3.549525">
    <ele>150</ele>
    <time>2018-01-29T14:26:15+01:00</time>
   </trkpt>
   <trkpt lat="47.522651" lon="3.549813">
    <ele>151</ele>
    <time>2018-01-29T14:26:31+01:00</time>
   </trkpt>
   <trkpt lat="47.522729" lon="3.550141">
    <ele>152</ele>
    <time>2018-01-29T14:26:50+01:00</time>
   </trkpt>
   <trkpt lat="47.522826" lon="3.550459">
    <ele>152</ele>
    <time>2018-01-29T14:27:05+01:00</time>
   </trkpt>
   <trkpt lat="47.522944" lon="3.550759">
    <ele>150</ele>
    <time>2018-01-29T14:27:24+01:00</time>
   </trkpt>
   <trkpt lat="47.523111" lon="3.551017">
    <ele>146</ele>
    <time>2018-01-29T14:27:39+01:00</time>
   </trkpt>
   <trkpt lat="47.523181" lon="3.551334">
    <ele>148</ele>
    <time>2018-01-29T14:27:55+01:00</time>
   </trkpt>
   <trkpt lat="47.523292" lon="3.55163">
    <ele>148</ele>
    <time>2018-01-29T14:28:08+01:00</time>
   </trkpt>
   <trkpt lat="47.523404" lon="3.551934">
    <ele>150</ele>
    <time>2018-01-29T14:28:23+01:00</time>
   </trkpt>
   <trkpt lat="47.523468" lon="3.552271">
    <ele>153</ele>
    <time>2018-01-29T14:28:41+01:00</time>
   </trkpt>
   <trkpt lat="47.523527" lon="3.552596">
    <ele>156</ele>
    <time>2018-01-29T14:28:59+01:00</time>
   </trkpt>
   <trkpt lat="47.523626" lon="3.552906">
    <ele>155</ele>
    <time>2018-01-29T14:29:15+01:00</time>
   </trkpt>
   <trkpt lat="47.523735" lon="3.553211">
    <ele>154</ele>
    <time>2018-01-29T14:29:31+01:00</time>
   </trkpt>
   <trkpt lat="47.523828" lon="3.553528">
    <ele>152</ele>
    <time>2018-01-29T14:29:47+01:00</time>
   </trkpt>
   <trkpt lat="47.523906" lon="3.553861">
    <ele>151</ele>
    <time>2018-01-29T14:30:03+01:00</time>
   </trkpt>
   <trkpt lat="47.524012" lon="3.554162">
    <ele>150</ele>
    <time>2018-01-29T14:30:20+01:00</time>
   </trkpt>
   <trkpt lat="47.524064" lon="3.554488">
    <ele>147</ele>
    <time>2018-01-29T14:30:36+01:00</time>
   </trkpt>
   <trkpt lat="47.524124" lon="3.554812">
    <ele>144</ele>
    <time>2018-01-29T14:30:51+01:00</time>
   </trkpt>
   <trkpt lat="47.524161" lon="3.555156">
    <ele>142</ele>
    <time>2018-01-29T14:31:08+01:00</time>
   </trkpt>
   <trkpt lat="47.524199" lon="3.555499">
    <ele>141</ele>
    <time>2018-01-29T14:31:22+01:00</time>
   </trkpt>
   <trkpt lat="47.524071" lon="3.555672">
    <ele>141</ele>
    <time>2018-01-29T14:32:03+01:00</time>
   </trkpt>
   <trkpt lat="47.523723" lon="3.555587">
    <ele>144</ele>
    <time>2018-01-29T14:32:22+01:00</time>
   </trkpt>
   <trkpt lat="47.523434" lon="3.555511">
    <ele>148</ele>
    <time>2018-01-29T14:32:37+01:00</time>
   </trkpt>
   <trkpt lat="47.522818" lon="3.555318">
    <ele>151</ele>
    <time>2018-01-29T14:32:53+01:00</time>
   </trkpt>
   <trkpt lat="47.522449" lon="3.555343">
    <ele>151</ele>
    <time>2020-05-22T17:31:24+02:00</time>
   </trkpt>
   <trkpt lat="47.522079" lon="3.555329">
    <ele>152</ele>
    <time>2018-01-29T14:33:09+01:00</time>
   </trkpt>
   <trkpt lat="47.521789" lon="3.555232">
    <ele>153</ele>
    <time>2018-01-29T14:33:25+01:00</time>
   </trkpt>
   <trkpt lat="47.521267" lon="3.554932">
    <ele>156</ele>
    <time>2018-01-29T14:33:40+01:00</time>
   </trkpt>
   <trkpt lat="47.52092" lon="3.554685">
    <ele>159</ele>
    <time>2018-01-29T14:33:55+01:00</time>
   </trkpt>
   <trkpt lat="47.520514" lon="3.55446">
    <ele>163</ele>
    <time>2018-01-29T14:34:12+01:00</time>
   </trkpt>
   <trkpt lat="47.519992" lon="3.554202">
    <ele>168</ele>
    <time>2018-01-29T14:34:31+01:00</time>
   </trkpt>
   <trkpt lat="47.519507" lon="3.55382">
    <ele>170</ele>
    <time>2018-01-29T14:34:50+01:00</time>
   </trkpt>
   <trkpt lat="47.519043" lon="3.553648">
    <ele>172</ele>
    <time>2018-01-29T14:35:03+01:00</time>
   </trkpt>
   <trkpt lat="47.518659" lon="3.55358">
    <ele>173</ele>
    <time>2018-01-29T14:35:20+01:00</time>
   </trkpt>
   <trkpt lat="47.518079" lon="3.553409">
    <ele>173</ele>
    <time>2018-01-29T14:35:35+01:00</time>
   </trkpt>
   <trkpt lat="47.517471" lon="3.55328">
    <ele>173</ele>
    <time>2018-01-29T14:35:50+01:00</time>
   </trkpt>
   <trkpt lat="47.516862" lon="3.553194">
    <ele>176</ele>
    <time>2018-01-29T14:36:08+01:00</time>
   </trkpt>
   <trkpt lat="47.516456" lon="3.552979">
    <ele>178</ele>
    <time>2018-01-29T14:36:23+01:00</time>
   </trkpt>
   <trkpt lat="47.516065" lon="3.552851">
    <ele>179</ele>
    <time>2018-01-29T14:36:39+01:00</time>
   </trkpt>
   <trkpt lat="47.515616" lon="3.552593">
    <ele>180</ele>
    <time>2018-01-29T14:36:54+01:00</time>
   </trkpt>
   <trkpt lat="47.515137" lon="3.552357">
    <ele>181</ele>
    <time>2018-01-29T14:37:10+01:00</time>
   </trkpt>
   <trkpt lat="47.514775" lon="3.55225">
    <ele>182</ele>
    <time>2018-01-29T14:37:25+01:00</time>
   </trkpt>
   <trkpt lat="47.51463" lon="3.552722">
    <ele>182</ele>
    <time>2020-05-22T17:32:54+02:00</time>
   </trkpt>
   <trkpt lat="47.514529" lon="3.553173">
    <ele>184</ele>
    <time>2020-05-22T17:32:59+02:00</time>
   </trkpt>
   <trkpt lat="47.514369" lon="3.553795">
    <ele>187</ele>
    <time>2018-01-29T14:37:39+01:00</time>
   </trkpt>
   <trkpt lat="47.514224" lon="3.554353">
    <ele>189</ele>
    <time>2018-01-29T14:37:56+01:00</time>
   </trkpt>
   <trkpt lat="47.514108" lon="3.554954">
    <ele>190</ele>
    <time>2020-05-22T17:33:14+02:00</time>
   </trkpt>
   <trkpt lat="47.514022" lon="3.555533">
    <ele>190</ele>
    <time>2020-05-22T17:33:19+02:00</time>
   </trkpt>
   <trkpt lat="47.513891" lon="3.556112">
    <ele>191</ele>
    <time>2020-05-22T17:33:24+02:00</time>
   </trkpt>
   <trkpt lat="47.513616" lon="3.556649">
    <ele>192</ele>
    <time>2020-05-22T17:33:29+02:00</time>
   </trkpt>
   <trkpt lat="47.51334" lon="3.557207">
    <ele>193</ele>
    <time>2020-05-22T17:33:34+02:00</time>
   </trkpt>
   <trkpt lat="47.51321" lon="3.557657">
    <ele>194</ele>
    <time>2020-05-22T17:33:39+02:00</time>
   </trkpt>
   <trkpt lat="47.513094" lon="3.558258">
    <ele>195</ele>
    <time>2018-01-29T14:38:12+01:00</time>
   </trkpt>
   <trkpt lat="47.512978" lon="3.558773">
    <ele>196</ele>
    <time>2018-01-29T14:38:27+01:00</time>
   </trkpt>
   <trkpt lat="47.512754" lon="3.559249">
    <ele>196</ele>
    <time>2018-01-29T14:38:44+01:00</time>
   </trkpt>
   <trkpt lat="47.512536" lon="3.560021">
    <ele>193</ele>
    <time>2018-01-29T14:38:59+01:00</time>
   </trkpt>
   <trkpt lat="47.512282" lon="3.560393">
    <ele>192</ele>
    <time>2018-01-29T14:39:14+01:00</time>
   </trkpt>
   <trkpt lat="47.511964" lon="3.560661">
    <ele>191</ele>
    <time>2018-01-29T14:39:30+01:00</time>
   </trkpt>
   <trkpt lat="47.511681" lon="3.560965">
    <ele>190</ele>
    <time>2020-05-22T17:34:14+02:00</time>
   </trkpt>
   <trkpt lat="47.511297" lon="3.561477">
    <ele>194</ele>
    <time>2020-05-22T17:34:19+02:00</time>
   </trkpt>
   <trkpt lat="47.511065" lon="3.561863">
    <ele>197</ele>
    <time>2018-01-29T14:39:45+01:00</time>
   </trkpt>
   <trkpt lat="47.510804" lon="3.562399">
    <ele>199</ele>
    <time>2020-05-22T17:34:29+02:00</time>
   </trkpt>
   <trkpt lat="47.510558" lon="3.563086">
    <ele>197</ele>
    <time>2020-05-22T17:34:34+02:00</time>
   </trkpt>
   <trkpt lat="47.510456" lon="3.563494">
    <ele>195</ele>
    <time>2018-01-29T14:40:01+01:00</time>
   </trkpt>
   <trkpt lat="47.510152" lon="3.563858">
    <ele>193</ele>
    <time>2018-01-29T14:40:17+01:00</time>
   </trkpt>
   <trkpt lat="47.509847" lon="3.564116">
    <ele>192</ele>
    <time>2018-01-29T14:40:32+01:00</time>
   </trkpt>
   <trkpt lat="47.509616" lon="3.564502">
    <ele>189</ele>
    <time>2018-01-29T14:40:47+01:00</time>
   </trkpt>
   <trkpt lat="47.509253" lon="3.56491">
    <ele>187</ele>
    <time>2018-01-29T14:41:03+01:00</time>
   </trkpt>
   <trkpt lat="47.509123" lon="3.565124">
    <ele>186</ele>
    <time>2020-05-22T17:35:04+02:00</time>
   </trkpt>
   <trkpt lat="47.508905" lon="3.565446">
    <ele>185</ele>
    <time>2018-01-29T14:41:20+01:00</time>
   </trkpt>
   <trkpt lat="47.508688" lon="3.565704">
    <ele>185</ele>
    <time>2018-01-29T14:41:35+01:00</time>
   </trkpt>
   <trkpt lat="47.508442" lon="3.565911">
    <ele>185</ele>
    <time>2018-01-29T14:41:51+01:00</time>
   </trkpt>
   <trkpt lat="47.50821" lon="3.566341">
    <ele>186</ele>
    <time>2018-01-29T14:42:06+01:00</time>
   </trkpt>
   <trkpt lat="47.508413" lon="3.566755">
    <ele>186</ele>
    <time>2018-01-29T14:42:22+01:00</time>
   </trkpt>
   <trkpt lat="47.50863" lon="3.567099">
    <ele>186</ele>
    <time>2018-01-29T14:42:37+01:00</time>
   </trkpt>
   <trkpt lat="47.508789" lon="3.567871">
    <ele>185</ele>
    <time>2018-01-29T14:42:54+01:00</time>
   </trkpt>
   <trkpt lat="47.50876" lon="3.568665">
    <ele>183</ele>
    <time>2018-01-29T14:43:10+01:00</time>
   </trkpt>
   <trkpt lat="47.508876" lon="3.569051">
    <ele>181</ele>
    <time>2018-01-29T14:43:28+01:00</time>
   </trkpt>
   <trkpt lat="47.509181" lon="3.569352">
    <ele>180</ele>
    <time>2018-01-29T14:43:43+01:00</time>
   </trkpt>
   <trkpt lat="47.509674" lon="3.569309">
    <ele>181</ele>
    <time>2018-01-29T14:43:58+01:00</time>
   </trkpt>
   <trkpt lat="47.510021" lon="3.569287">
    <ele>182</ele>
    <time>2020-05-22T17:36:04+02:00</time>
   </trkpt>
   <trkpt lat="47.510369" lon="3.56933">
    <ele>183</ele>
    <time>2018-01-29T14:44:18+01:00</time>
   </trkpt>
   <trkpt lat="47.510674" lon="3.569545">
    <ele>184</ele>
    <time>2018-01-29T14:44:34+01:00</time>
   </trkpt>
   <trkpt lat="47.510978" lon="3.56991">
    <ele>185</ele>
    <time>2018-01-29T14:44:52+01:00</time>
   </trkpt>
   <trkpt lat="47.511369" lon="3.570296">
    <ele>185</ele>
    <time>2018-01-29T14:45:07+01:00</time>
   </trkpt>
   <trkpt lat="47.511703" lon="3.570661">
    <ele>185</ele>
    <time>2018-01-29T14:45:22+01:00</time>
   </trkpt>
   <trkpt lat="47.512058" lon="3.570965">
    <ele>184</ele>
    <time>2020-05-22T17:36:34+02:00</time>
   </trkpt>
   <trkpt lat="47.512427" lon="3.571454">
    <ele>184</ele>
    <time>2020-05-22T17:36:39+02:00</time>
   </trkpt>
   <trkpt lat="47.512775" lon="3.571862">
    <ele>185</ele>
    <time>2020-05-22T17:36:44+02:00</time>
   </trkpt>
   <trkpt lat="47.513276" lon="3.572123">
    <ele>188</ele>
    <time>2018-01-29T14:45:38+01:00</time>
   </trkpt>
   <trkpt lat="47.513645" lon="3.572442">
    <ele>188</ele>
    <time>2020-05-22T17:36:54+02:00</time>
   </trkpt>
   <trkpt lat="47.514116" lon="3.572724">
    <ele>188</ele>
    <time>2018-01-29T14:45:55+01:00</time>
   </trkpt>
   <trkpt lat="47.514471" lon="3.572892">
    <ele>188</ele>
    <time>2018-01-29T14:46:11+01:00</time>
   </trkpt>
   <trkpt lat="47.51479" lon="3.572978">
    <ele>188</ele>
    <time>2018-01-29T14:46:29+01:00</time>
   </trkpt>
   <trkpt lat="47.515166" lon="3.573064">
    <ele>188</ele>
    <time>2018-01-29T14:46:47+01:00</time>
   </trkpt>
   <trkpt lat="47.515645" lon="3.57315">
    <ele>187</ele>
    <time>2018-01-29T14:47:03+01:00</time>
   </trkpt>
   <trkpt lat="47.516021" lon="3.573343">
    <ele>187</ele>
    <time>2020-05-22T17:37:24+02:00</time>
   </trkpt>
   <trkpt lat="47.51621" lon="3.5736">
    <ele>187</ele>
    <time>2020-05-22T17:37:29+02:00</time>
   </trkpt>
   <trkpt lat="47.516529" lon="3.574029">
    <ele>188</ele>
    <time>2020-05-22T17:37:34+02:00</time>
   </trkpt>
   <trkpt lat="47.516775" lon="3.574287">
    <ele>188</ele>
    <time>2020-05-22T17:37:39+02:00</time>
   </trkpt>
   <trkpt lat="47.517108" lon="3.574609">
    <ele>189</ele>
    <time>2020-05-22T17:37:44+02:00</time>
   </trkpt>
   <trkpt lat="47.517297" lon="3.575038">
    <ele>190</ele>
    <time>2018-01-29T14:47:19+01:00</time>
   </trkpt>
   <trkpt lat="47.5175" lon="3.57551">
    <ele>190</ele>
    <time>2018-01-29T14:47:36+01:00</time>
   </trkpt>
   <trkpt lat="47.517739" lon="3.575986">
    <ele>189</ele>
    <time>2018-01-29T14:47:52+01:00</time>
   </trkpt>
   <trkpt lat="47.517855" lon="3.576393">
    <ele>188</ele>
    <time>2018-01-29T14:48:08+01:00</time>
   </trkpt>
   <trkpt lat="47.517992" lon="3.576862">
    <ele>187</ele>
    <time>2020-05-22T17:38:09+02:00</time>
   </trkpt>
   <trkpt lat="47.518181" lon="3.577398">
    <ele>186</ele>
    <time>2020-05-22T17:38:14+02:00</time>
   </trkpt>
   <trkpt lat="47.518413" lon="3.577806">
    <ele>183</ele>
    <time>2018-01-29T14:48:23+01:00</time>
   </trkpt>
   <trkpt lat="47.518934" lon="3.578192">
    <ele>178</ele>
    <time>2018-01-29T14:48:40+01:00</time>
   </trkpt>
   <trkpt lat="47.519369" lon="3.578557">
    <ele>174</ele>
    <time>2018-01-29T14:48:52+01:00</time>
   </trkpt>
   <trkpt lat="47.519847" lon="3.578793">
    <ele>171</ele>
    <time>2018-01-29T14:49:14+01:00</time>
   </trkpt>
   <trkpt lat="47.520253" lon="3.579136">
    <ele>169</ele>
    <time>2018-01-29T14:49:28+01:00</time>
   </trkpt>
   <trkpt lat="47.520543" lon="3.579437">
    <ele>166</ele>
    <time>2018-01-29T14:49:47+01:00</time>
   </trkpt>
   <trkpt lat="47.520847" lon="3.579759">
    <ele>162</ele>
    <time>2018-01-29T14:50:02+01:00</time>
   </trkpt>
   <trkpt lat="47.521195" lon="3.579995">
    <ele>160</ele>
    <time>2018-01-29T14:50:19+01:00</time>
   </trkpt>
   <trkpt lat="47.521528" lon="3.580274">
    <ele>157</ele>
    <time>2018-01-29T14:50:35+01:00</time>
   </trkpt>
   <trkpt lat="47.521847" lon="3.580595">
    <ele>154</ele>
    <time>2018-01-29T14:50:50+01:00</time>
   </trkpt>
   <trkpt lat="47.52218" lon="3.580831">
    <ele>152</ele>
    <time>2018-01-29T14:51:07+01:00</time>
   </trkpt>
   <trkpt lat="47.522412" lon="3.581132">
    <ele>151</ele>
    <time>2018-01-29T14:51:22+01:00</time>
   </trkpt>
   <trkpt lat="47.522731" lon="3.581282">
    <ele>149</ele>
    <time>2018-01-29T14:51:37+01:00</time>
   </trkpt>
   <trkpt lat="47.523006" lon="3.581454">
    <ele>147</ele>
    <time>2018-01-29T14:51:54+01:00</time>
   </trkpt>
   <trkpt lat="47.523484" lon="3.581754">
    <ele>145</ele>
    <time>2018-01-29T14:52:09+01:00</time>
   </trkpt>
   <trkpt lat="47.523775" lon="3.581833">
    <ele>144</ele>
    <time>2018-01-29T14:52:24+01:00</time>
   </trkpt>
   <trkpt lat="47.524144" lon="3.582048">
    <ele>143</ele>
    <time>2018-01-29T14:52:43+01:00</time>
   </trkpt>
   <trkpt lat="47.524542" lon="3.582269">
    <ele>140</ele>
    <time>2018-01-29T14:53:03+01:00</time>
   </trkpt>
   <trkpt lat="47.524796" lon="3.582337">
    <ele>138</ele>
    <time>2020-05-22T17:39:49+02:00</time>
   </trkpt>
   <trkpt lat="47.525023" lon="3.582327">
    <ele>137</ele>
    <time>2018-01-29T14:53:21+01:00</time>
   </trkpt>
   <trkpt lat="47.525216" lon="3.582441">
    <ele>137</ele>
    <time>2018-01-29T14:53:55+01:00</time>
   </trkpt>
   <trkpt lat="47.525426" lon="3.58262">
    <ele>136</ele>
    <time>2018-01-29T14:54:10+01:00</time>
   </trkpt>
   <trkpt lat="47.525665" lon="3.582581">
    <ele>135</ele>
    <time>2018-01-29T14:56:03+01:00</time>
   </trkpt>
   <trkpt lat="47.525867" lon="3.582386">
    <ele>135</ele>
    <time>2018-01-29T14:56:22+01:00</time>
   </trkpt>
   <trkpt lat="47.526034" lon="3.582162">
    <ele>134</ele>
    <time>2018-01-29T14:56:40+01:00</time>
   </trkpt>
   <trkpt lat="47.526223" lon="3.581915">
    <ele>134</ele>
    <time>2018-01-29T14:56:55+01:00</time>
   </trkpt>
   <trkpt lat="47.526382" lon="3.581722">
    <ele>133</ele>
    <time>2018-01-29T14:57:13+01:00</time>
   </trkpt>
   <trkpt lat="47.526545" lon="3.581483">
    <ele>133</ele>
    <time>2018-01-29T14:57:32+01:00</time>
   </trkpt>
   <trkpt lat="47.52671" lon="3.581253">
    <ele>133</ele>
    <time>2018-01-29T14:57:53+01:00</time>
   </trkpt>
   <trkpt lat="47.526893" lon="3.581041">
    <ele>133</ele>
    <time>2018-01-29T14:58:06+01:00</time>
   </trkpt>
   <trkpt lat="47.527082" lon="3.580834">
    <ele>133</ele>
    <time>2018-01-29T14:58:25+01:00</time>
   </trkpt>
   <trkpt lat="47.527263" lon="3.580614">
    <ele>134</ele>
    <time>2018-01-29T14:58:39+01:00</time>
   </trkpt>
   <trkpt lat="47.527421" lon="3.580363">
    <ele>133</ele>
    <time>2018-01-29T14:58:53+01:00</time>
   </trkpt>
   <trkpt lat="47.527598" lon="3.580149">
    <ele>134</ele>
    <time>2018-01-29T14:59:11+01:00</time>
   </trkpt>
   <trkpt lat="47.527785" lon="3.579924">
    <ele>134</ele>
    <time>2018-01-29T14:59:31+01:00</time>
   </trkpt>
   <trkpt lat="47.52799" lon="3.579784">
    <ele>134</ele>
    <time>2018-01-29T14:59:46+01:00</time>
   </trkpt>
   <trkpt lat="47.528227" lon="3.579751">
    <ele>135</ele>
    <time>2018-01-29T15:00:02+01:00</time>
   </trkpt>
   <trkpt lat="47.528456" lon="3.57983">
    <ele>135</ele>
    <time>2018-01-29T15:00:20+01:00</time>
   </trkpt>
   <trkpt lat="47.528683" lon="3.579929">
    <ele>135</ele>
    <time>2018-01-29T15:00:42+01:00</time>
   </trkpt>
   <trkpt lat="47.528838" lon="3.57992">
    <ele>135</ele>
    <time>2020-05-22T17:41:34+02:00</time>
   </trkpt>
   <trkpt lat="47.528983" lon="3.579973">
    <ele>135</ele>
    <time>2018-01-29T15:01:01+01:00</time>
   </trkpt>
   <trkpt lat="47.529093" lon="3.579946">
    <ele>135</ele>
    <time>2018-01-29T15:01:46+01:00</time>
   </trkpt>
   <trkpt lat="47.529317" lon="3.579865">
    <ele>135</ele>
    <time>2018-01-29T15:01:57+01:00</time>
   </trkpt>
   <trkpt lat="47.529481" lon="3.579625">
    <ele>136</ele>
    <time>2018-01-29T15:02:16+01:00</time>
   </trkpt>
   <trkpt lat="47.529562" lon="3.579315">
    <ele>136</ele>
    <time>2018-01-29T15:02:33+01:00</time>
   </trkpt>
   <trkpt lat="47.529629" lon="3.578975">
    <ele>136</ele>
    <time>2018-01-29T15:02:48+01:00</time>
   </trkpt>
   <trkpt lat="47.529717" lon="3.578649">
    <ele>136</ele>
    <time>2018-01-29T15:03:06+01:00</time>
   </trkpt>
   <trkpt lat="47.529756" lon="3.578305">
    <ele>136</ele>
    <time>2018-01-29T15:03:22+01:00</time>
   </trkpt>
   <trkpt lat="47.529771" lon="3.577963">
    <ele>136</ele>
    <time>2018-01-29T15:03:38+01:00</time>
   </trkpt>
   <trkpt lat="47.529783" lon="3.57761">
    <ele>136</ele>
    <time>2018-01-29T15:03:54+01:00</time>
   </trkpt>
   <trkpt lat="47.529823" lon="3.577173">
    <ele>135</ele>
    <time>2018-01-29T15:05:33+01:00</time>
   </trkpt>
   <trkpt lat="47.529876" lon="3.576952">
    <ele>135</ele>
    <time>2018-01-29T15:05:51+01:00</time>
   </trkpt>
   <trkpt lat="47.530101" lon="3.576902">
    <ele>135</ele>
    <time>2018-01-29T15:06:07+01:00</time>
   </trkpt>
   <trkpt lat="47.530332" lon="3.576882">
    <ele>136</ele>
    <time>2018-01-29T15:06:23+01:00</time>
   </trkpt>
   <trkpt lat="47.530563" lon="3.576871">
    <ele>136</ele>
    <time>2018-01-29T15:06:41+01:00</time>
   </trkpt>
   <trkpt lat="47.530797" lon="3.576854">
    <ele>137</ele>
    <time>2018-01-29T15:07:00+01:00</time>
   </trkpt>
   <trkpt lat="47.531025" lon="3.576856">
    <ele>137</ele>
    <time>2018-01-29T15:07:17+01:00</time>
   </trkpt>
   <trkpt lat="47.531254" lon="3.576802">
    <ele>137</ele>
    <time>2018-01-29T15:07:31+01:00</time>
   </trkpt>
   <trkpt lat="47.53149" lon="3.576804">
    <ele>137</ele>
    <time>2018-01-29T15:07:49+01:00</time>
   </trkpt>
   <trkpt lat="47.531715" lon="3.576743">
    <ele>137</ele>
    <time>2018-01-29T15:08:05+01:00</time>
   </trkpt>
   <trkpt lat="47.531946" lon="3.576551">
    <ele>136</ele>
    <time>2018-01-29T15:08:19+01:00</time>
   </trkpt>
   <trkpt lat="47.532069" lon="3.576293">
    <ele>137</ele>
    <time>2018-01-29T15:08:35+01:00</time>
   </trkpt>
   <trkpt lat="47.531982" lon="3.575821">
    <ele>137</ele>
    <time>2018-01-29T15:08:52+01:00</time>
   </trkpt>
   <trkpt lat="47.531939" lon="3.575521">
    <ele>139</ele>
    <time>2018-01-29T15:09:09+01:00</time>
   </trkpt>
   <trkpt lat="47.53191" lon="3.575263">
    <ele>140</ele>
    <time>2018-01-29T15:09:25+01:00</time>
   </trkpt>
   <trkpt lat="47.53233" lon="3.574866">
    <ele>140</ele>
    <time>2018-01-29T15:09:43+01:00</time>
   </trkpt>
   <trkpt lat="47.532678" lon="3.574598">
    <ele>140</ele>
    <time>2018-01-29T15:09:59+01:00</time>
   </trkpt>
   <trkpt lat="47.532938" lon="3.574405">
    <ele>140</ele>
    <time>2018-01-29T15:10:19+01:00</time>
   </trkpt>
   <trkpt lat="47.533214" lon="3.57419">
    <ele>140</ele>
    <time>2018-01-29T15:10:37+01:00</time>
   </trkpt>
   <trkpt lat="47.533431" lon="3.574019">
    <ele>140</ele>
    <time>2018-01-29T15:10:54+01:00</time>
   </trkpt>
   <trkpt lat="47.533699" lon="3.573815">
    <ele>141</ele>
    <time>2018-01-29T15:11:10+01:00</time>
   </trkpt>
   <trkpt lat="47.533909" lon="3.573643">
    <ele>143</ele>
    <time>2018-01-29T15:11:26+01:00</time>
   </trkpt>
   <trkpt lat="47.534039" lon="3.573471">
    <ele>144</ele>
    <time>2018-01-29T15:11:43+01:00</time>
   </trkpt>
   <trkpt lat="47.534134" lon="3.573343">
    <ele>145</ele>
    <time>2018-01-29T15:12:00+01:00</time>
   </trkpt>
   <trkpt lat="47.533952" lon="3.572935">
    <ele>146</ele>
    <time>2018-01-29T15:12:16+01:00</time>
   </trkpt>
   <trkpt lat="47.533837" lon="3.572624">
    <ele>146</ele>
    <time>2018-01-29T15:12:31+01:00</time>
   </trkpt>
   <trkpt lat="47.533648" lon="3.572259">
    <ele>147</ele>
    <time>2018-01-29T15:12:46+01:00</time>
   </trkpt>
   <trkpt lat="47.533453" lon="3.571197">
    <ele>150</ele>
    <time>2018-01-29T15:13:04+01:00</time>
   </trkpt>
   <trkpt lat="47.533409" lon="3.570725">
    <ele>151</ele>
    <time>2018-01-29T15:13:21+01:00</time>
   </trkpt>
   <trkpt lat="47.533279" lon="3.569802">
    <ele>153</ele>
    <time>2018-01-29T15:13:37+01:00</time>
   </trkpt>
   <trkpt lat="47.533083" lon="3.569158">
    <ele>155</ele>
    <time>2018-01-29T15:13:54+01:00</time>
   </trkpt>
   <trkpt lat="47.532873" lon="3.568826">
    <ele>156</ele>
    <time>2018-01-29T15:14:10+01:00</time>
   </trkpt>
   <trkpt lat="47.532649" lon="3.568504">
    <ele>157</ele>
    <time>2018-01-29T15:14:27+01:00</time>
   </trkpt>
   <trkpt lat="47.532583" lon="3.568332">
    <ele>158</ele>
    <time>2018-01-29T15:14:44+01:00</time>
   </trkpt>
   <trkpt lat="47.532439" lon="3.567978">
    <ele>158</ele>
    <time>2018-01-29T15:15:01+01:00</time>
   </trkpt>
   <trkpt lat="47.532323" lon="3.567538">
    <ele>159</ele>
    <time>2018-01-29T15:15:16+01:00</time>
   </trkpt>
   <trkpt lat="47.53212" lon="3.567109">
    <ele>160</ele>
    <time>2018-01-29T15:15:33+01:00</time>
   </trkpt>
   <trkpt lat="47.531968" lon="3.566841">
    <ele>160</ele>
    <time>2018-01-29T15:15:48+01:00</time>
   </trkpt>
   <trkpt lat="47.531765" lon="3.56639">
    <ele>161</ele>
    <time>2018-01-29T15:16:05+01:00</time>
   </trkpt>
   <trkpt lat="47.53162" lon="3.566079">
    <ele>162</ele>
    <time>2018-01-29T15:16:23+01:00</time>
   </trkpt>
   <trkpt lat="47.531482" lon="3.565725">
    <ele>161</ele>
    <time>2018-01-29T15:16:39+01:00</time>
   </trkpt>
   <trkpt lat="47.531424" lon="3.565468">
    <ele>161</ele>
    <time>2018-01-29T15:16:56+01:00</time>
   </trkpt>
   <trkpt lat="47.531345" lon="3.565167">
    <ele>162</ele>
    <time>2018-01-29T15:17:12+01:00</time>
   </trkpt>
   <trkpt lat="47.531265" lon="3.56491">
    <ele>162</ele>
    <time>2018-01-29T15:17:27+01:00</time>
   </trkpt>
   <trkpt lat="47.531149" lon="3.564609">
    <ele>162</ele>
    <time>2018-01-29T15:17:46+01:00</time>
   </trkpt>
   <trkpt lat="47.531127" lon="3.564331">
    <ele>163</ele>
    <time>2018-01-29T15:18:02+01:00</time>
   </trkpt>
   <trkpt lat="47.531062" lon="3.563998">
    <ele>163</ele>
    <time>2018-01-29T15:18:20+01:00</time>
   </trkpt>
   <trkpt lat="47.531019" lon="3.563751">
    <ele>162</ele>
    <time>2018-01-29T15:18:36+01:00</time>
   </trkpt>
   <trkpt lat="47.531048" lon="3.563397">
    <ele>162</ele>
    <time>2018-01-29T15:18:53+01:00</time>
   </trkpt>
   <trkpt lat="47.531011" lon="3.563054">
    <ele>161</ele>
    <time>2018-01-29T15:19:46+01:00</time>
   </trkpt>
   <trkpt lat="47.530925" lon="3.5627">
    <ele>160</ele>
    <time>2018-01-29T15:20:03+01:00</time>
   </trkpt>
   <trkpt lat="47.530845" lon="3.562421">
    <ele>159</ele>
    <time>2018-01-29T15:20:17+01:00</time>
   </trkpt>
   <trkpt lat="47.530729" lon="3.562077">
    <ele>155</ele>
    <time>2018-01-29T15:20:36+01:00</time>
   </trkpt>
   <trkpt lat="47.530606" lon="3.561756">
    <ele>152</ele>
    <time>2018-01-29T15:20:53+01:00</time>
   </trkpt>
   <trkpt lat="47.530555" lon="3.561477">
    <ele>151</ele>
    <time>2018-01-29T15:21:08+01:00</time>
   </trkpt>
   <trkpt lat="47.530425" lon="3.561219">
    <ele>148</ele>
    <time>2018-01-29T15:21:24+01:00</time>
   </trkpt>
   <trkpt lat="47.530309" lon="3.561112">
    <ele>146</ele>
    <time>2018-01-29T15:21:41+01:00</time>
   </trkpt>
   <trkpt lat="47.530294" lon="3.560769">
    <ele>146</ele>
    <time>2018-01-29T15:21:58+01:00</time>
   </trkpt>
   <trkpt lat="47.530323" lon="3.560404">
    <ele>146</ele>
    <time>2018-01-29T15:22:13+01:00</time>
   </trkpt>
   <trkpt lat="47.530309" lon="3.560039">
    <ele>146</ele>
    <time>2018-01-29T15:22:32+01:00</time>
   </trkpt>
   <trkpt lat="47.530236" lon="3.559749">
    <ele>144</ele>
    <time>2018-01-29T15:22:46+01:00</time>
   </trkpt>
   <trkpt lat="47.530222" lon="3.559395">
    <ele>144</ele>
    <time>2018-01-29T15:23:04+01:00</time>
   </trkpt>
   <trkpt lat="47.530251" lon="3.559009">
    <ele>144</ele>
    <time>2018-01-29T15:23:21+01:00</time>
   </trkpt>
   <trkpt lat="47.530251" lon="3.558709">
    <ele>144</ele>
    <time>2018-01-29T15:23:37+01:00</time>
   </trkpt>
   <trkpt lat="47.530251" lon="3.558355">
    <ele>145</ele>
    <time>2018-01-29T15:23:54+01:00</time>
   </trkpt>
   <trkpt lat="47.530229" lon="3.557925">
    <ele>145</ele>
    <time>2018-01-29T15:24:11+01:00</time>
   </trkpt>
   <trkpt lat="47.53012" lon="3.557636">
    <ele>144</ele>
    <time>2018-01-29T15:24:26+01:00</time>
   </trkpt>
   <trkpt lat="47.530084" lon="3.557357">
    <ele>144</ele>
    <time>2018-01-29T15:24:43+01:00</time>
   </trkpt>
   <trkpt lat="47.529997" lon="3.556992">
    <ele>144</ele>
    <time>2018-01-29T15:25:01+01:00</time>
   </trkpt>
   <trkpt lat="47.529939" lon="3.556702">
    <ele>144</ele>
    <time>2018-01-29T15:25:19+01:00</time>
   </trkpt>
   <trkpt lat="47.529831" lon="3.556348">
    <ele>144</ele>
    <time>2018-01-29T15:25:36+01:00</time>
   </trkpt>
   <trkpt lat="47.529744" lon="3.555994">
    <ele>144</ele>
    <time>2018-01-29T15:25:51+01:00</time>
   </trkpt>
   <trkpt lat="47.529671" lon="3.555651">
    <ele>144</ele>
    <time>2018-01-29T15:26:08+01:00</time>
   </trkpt>
   <trkpt lat="47.52957" lon="3.555275">
    <ele>144</ele>
    <time>2018-01-29T15:26:26+01:00</time>
   </trkpt>
   <trkpt lat="47.529454" lon="3.554975">
    <ele>144</ele>
    <time>2018-01-29T15:26:41+01:00</time>
   </trkpt>
   <trkpt lat="47.529324" lon="3.55475">
    <ele>144</ele>
    <time>2018-01-29T15:26:59+01:00</time>
   </trkpt>
   <trkpt lat="47.529193" lon="3.554771">
    <ele>143</ele>
    <time>2018-01-29T15:27:21+01:00</time>
   </trkpt>
   <trkpt lat="47.529077" lon="3.554642">
    <ele>143</ele>
    <time>2018-01-29T15:27:41+01:00</time>
   </trkpt>
   <trkpt lat="47.528831" lon="3.554707">
    <ele>142</ele>
    <time>2018-01-29T15:27:58+01:00</time>
   </trkpt>
   <trkpt lat="47.528519" lon="3.554835">
    <ele>141</ele>
    <time>2018-01-29T15:28:16+01:00</time>
   </trkpt>
   <trkpt lat="47.528172" lon="3.554996">
    <ele>139</ele>
    <time>2018-01-29T15:28:32+01:00</time>
   </trkpt>
   <trkpt lat="47.527922" lon="3.55513">
    <ele>138</ele>
    <time>2018-01-29T15:28:51+01:00</time>
   </trkpt>
   <trkpt lat="47.527711" lon="3.555254">
    <ele>137</ele>
    <time>2018-01-29T15:29:03+01:00</time>
   </trkpt>
   <trkpt lat="47.527496" lon="3.555372">
    <ele>136</ele>
    <time>2018-01-29T15:29:20+01:00</time>
   </trkpt>
   <trkpt lat="47.527276" lon="3.555456">
    <ele>136</ele>
    <time>2018-01-29T15:29:39+01:00</time>
   </trkpt>
   <trkpt lat="47.527053" lon="3.555576">
    <ele>137</ele>
    <time>2018-01-29T15:29:53+01:00</time>
   </trkpt>
   <trkpt lat="47.526832" lon="3.55569">
    <ele>137</ele>
    <time>2018-01-29T15:30:39+01:00</time>
   </trkpt>
   <trkpt lat="47.526781" lon="3.555232">
    <ele>136</ele>
    <time>2018-01-29T15:32:08+01:00</time>
   </trkpt>
   <trkpt lat="47.526708" lon="3.554803">
    <ele>135</ele>
    <time>2018-01-29T15:32:22+01:00</time>
   </trkpt>
   <trkpt lat="47.526629" lon="3.554471">
    <ele>135</ele>
    <time>2018-01-29T15:32:44+01:00</time>
   </trkpt>
   <trkpt lat="47.526585" lon="3.554245">
    <ele>135</ele>
    <time>2018-01-29T15:33:05+01:00</time>
   </trkpt>
   <trkpt lat="47.52631" lon="3.554363">
    <ele>135</ele>
    <time>2018-01-29T15:33:19+01:00</time>
   </trkpt>
   <trkpt lat="47.526078" lon="3.554331">
    <ele>135</ele>
    <time>2018-01-29T15:33:54+01:00</time>
   </trkpt>
   <trkpt lat="47.525853" lon="3.554063">
    <ele>135</ele>
    <time>2018-01-29T15:34:08+01:00</time>
   </trkpt>
   <trkpt lat="47.525593" lon="3.553718">
    <ele>135</ele>
    <time>2018-01-29T15:34:23+01:00</time>
   </trkpt>
   <trkpt lat="47.525417" lon="3.553512">
    <ele>135</ele>
    <time>2018-01-29T15:34:39+01:00</time>
   </trkpt>
   <trkpt lat="47.525239" lon="3.553296">
    <ele>134</ele>
    <time>2018-01-29T15:34:54+01:00</time>
   </trkpt>
   <trkpt lat="47.525051" lon="3.55308">
    <ele>134</ele>
    <time>2018-01-29T15:35:10+01:00</time>
   </trkpt>
   <trkpt lat="47.524885" lon="3.552835">
    <ele>135</ele>
    <time>2018-01-29T15:35:29+01:00</time>
   </trkpt>
   <trkpt lat="47.524726" lon="3.552599">
    <ele>135</ele>
    <time>2018-01-29T15:35:46+01:00</time>
   </trkpt>
   <trkpt lat="47.524544" lon="3.552371">
    <ele>136</ele>
    <time>2018-01-29T15:36:03+01:00</time>
   </trkpt>
   <trkpt lat="47.524362" lon="3.552149">
    <ele>137</ele>
    <time>2018-01-29T15:36:21+01:00</time>
   </trkpt>
   <trkpt lat="47.524141" lon="3.55203">
    <ele>137</ele>
    <time>2018-01-29T15:36:42+01:00</time>
   </trkpt>
   <trkpt lat="47.524047" lon="3.551719">
    <ele>138</ele>
    <time>2018-01-29T15:36:56+01:00</time>
   </trkpt>
   <trkpt lat="47.524072" lon="3.551374">
    <ele>137</ele>
    <time>2018-01-29T15:37:13+01:00</time>
   </trkpt>
   <trkpt lat="47.524127" lon="3.551049">
    <ele>136</ele>
    <time>2018-01-29T15:37:30+01:00</time>
   </trkpt>
   <trkpt lat="47.524137" lon="3.550708">
    <ele>136</ele>
    <time>2018-01-29T15:37:47+01:00</time>
   </trkpt>
   <trkpt lat="47.524193" lon="3.550386">
    <ele>136</ele>
    <time>2018-01-29T15:38:08+01:00</time>
   </trkpt>
   <trkpt lat="47.524274" lon="3.550254">
    <ele>136</ele>
    <time>2018-01-29T15:38:20+01:00</time>
   </trkpt>
   <trkpt lat="47.524332" lon="3.549825">
    <ele>136</ele>
    <time>2018-01-29T15:38:41+01:00</time>
   </trkpt>
   <trkpt lat="47.524462" lon="3.549417">
    <ele>136</ele>
    <time>2018-01-29T15:38:58+01:00</time>
   </trkpt>
   <trkpt lat="47.52447" lon="3.549117">
    <ele>136</ele>
    <time>2018-01-29T15:39:17+01:00</time>
   </trkpt>
   <trkpt lat="47.524535" lon="3.548763">
    <ele>136</ele>
    <time>2018-01-29T15:39:33+01:00</time>
   </trkpt>
   <trkpt lat="47.524593" lon="3.548409">
    <ele>136</ele>
    <time>2018-01-29T15:39:47+01:00</time>
   </trkpt>
   <trkpt lat="47.5246" lon="3.548012">
    <ele>137</ele>
    <time>2018-01-29T15:40:00+01:00</time>
   </trkpt>
   <trkpt lat="47.524665" lon="3.547658">
    <ele>137</ele>
    <time>2018-01-29T15:40:15+01:00</time>
   </trkpt>
   <trkpt lat="47.524644" lon="3.547272">
    <ele>138</ele>
    <time>2018-01-29T15:40:34+01:00</time>
   </trkpt>
   <trkpt lat="47.524702" lon="3.547036">
    <ele>138</ele>
    <time>2018-01-29T15:40:53+01:00</time>
   </trkpt>
   <trkpt lat="47.524665" lon="3.546574">
    <ele>139</ele>
    <time>2018-01-29T15:41:11+01:00</time>
   </trkpt>
   <trkpt lat="47.524636" lon="3.546306">
    <ele>139</ele>
    <time>2018-01-29T15:41:28+01:00</time>
   </trkpt>
   <trkpt lat="47.524636" lon="3.545963">
    <ele>138</ele>
    <time>2018-01-29T15:41:43+01:00</time>
   </trkpt>
   <trkpt lat="47.524622" lon="3.545684">
    <ele>138</ele>
    <time>2018-01-29T15:42:01+01:00</time>
   </trkpt>
   <trkpt lat="47.524578" lon="3.545298">
    <ele>138</ele>
    <time>2018-01-29T15:42:15+01:00</time>
   </trkpt>
   <trkpt lat="47.524615" lon="3.544986">
    <ele>138</ele>
    <time>2018-01-29T15:42:33+01:00</time>
   </trkpt>
   <trkpt lat="47.5246" lon="3.544675">
    <ele>138</ele>
    <time>2018-01-29T15:42:48+01:00</time>
   </trkpt>
   <trkpt lat="47.524644" lon="3.54431">
    <ele>138</ele>
    <time>2018-01-29T15:43:08+01:00</time>
   </trkpt>
   <trkpt lat="47.524673" lon="3.54401">
    <ele>138</ele>
    <time>2018-01-29T15:43:26+01:00</time>
   </trkpt>
   <trkpt lat="47.524752" lon="3.543667">
    <ele>138</ele>
    <time>2018-01-29T15:43:46+01:00</time>
   </trkpt>
   <trkpt lat="47.524817" lon="3.543334">
    <ele>138</ele>
    <time>2018-01-29T15:44:05+01:00</time>
   </trkpt>
   <trkpt lat="47.524846" lon="3.542862">
    <ele>138</ele>
    <time>2018-01-29T15:44:19+01:00</time>
   </trkpt>
   <trkpt lat="47.524839" lon="3.542562">
    <ele>138</ele>
    <time>2018-01-29T15:44:34+01:00</time>
   </trkpt>
   <trkpt lat="47.524803" lon="3.542251">
    <ele>139</ele>
    <time>2018-01-29T15:44:54+01:00</time>
   </trkpt>
   <trkpt lat="47.524817" lon="3.541982">
    <ele>139</ele>
    <time>2018-01-29T15:45:12+01:00</time>
   </trkpt>
   <trkpt lat="47.524817" lon="3.541639">
    <ele>140</ele>
    <time>2018-01-29T15:45:27+01:00</time>
   </trkpt>
   <trkpt lat="47.524832" lon="3.541274">
    <ele>139</ele>
    <time>2018-01-29T15:45:43+01:00</time>
   </trkpt>
   <trkpt lat="47.524904" lon="3.540877">
    <ele>139</ele>
    <time>2018-01-29T15:46:02+01:00</time>
   </trkpt>
   <trkpt lat="47.524796" lon="3.540373">
    <ele>140</ele>
    <time>2018-01-29T15:46:19+01:00</time>
   </trkpt>
   <trkpt lat="47.524303" lon="3.540427">
    <ele>139</ele>
    <time>2018-01-29T15:46:38+01:00</time>
   </trkpt>
   <trkpt lat="47.523992" lon="3.540276">
    <ele>139</ele>
    <time>2018-01-29T15:46:55+01:00</time>
   </trkpt>
   <trkpt lat="47.523702" lon="3.540105">
    <ele>140</ele>
    <time>2020-05-22T17:54:04+02:00</time>
   </trkpt>
   <trkpt lat="47.523282" lon="3.54003">
    <ele>141</ele>
    <time>2018-01-29T15:47:15+01:00</time>
   </trkpt>
  </trkseg>
 </trk></gpx>